createdAt,value
2019-02-02T00:01:35.370Z,36.98
2019-02-02T00:03:10.376Z,37.05
2019-02-02T00:04:45.169Z,38.20
2019-02-02T00:06:20.976Z,37.33
2019-02-02T00:07:55.795Z,37.53
2019-02-02T00:09:30.833Z,37.17
2019-02-02T00:11:07.679Z,38.53
2019-02-02T00:12:42.704Z,35.80
2019-02-02T00:14:17.531Z,35.68
2019-02-02T00:15:52.675Z,36.30
2019-02-02T00:17:27.897Z,36.23
2019-02-02T00:19:02.800Z,35.92
2019-02-02T00:20:37.716Z,36.15
2019-02-02T00:22:13.011Z,35.43
2019-02-02T00:23:47.810Z,34.18
2019-02-02T00:25:22.731Z,34.78
2019-02-02T00:26:58.167Z,31.85
2019-02-02T00:28:33.227Z,33.83
2019-02-02T00:30:10.474Z,32.25
2019-02-02T00:31:45.474Z,33.15
2019-02-02T00:33:26.605Z,31.75
2019-02-02T00:35:01.778Z,32.60
2019-02-02T00:36:37.120Z,33.23
2019-02-02T00:38:12.286Z,31.68
2019-02-02T00:39:47.161Z,30.70
2019-02-02T00:41:21.987Z,31.17
2019-02-02T00:42:57.195Z,33.02
2019-02-02T00:44:32.310Z,32.03
2019-02-02T00:46:07.824Z,33.55
2019-02-02T00:47:43.044Z,31.55
2019-02-02T00:49:17.873Z,33.90
2019-02-02T00:50:53.073Z,33.95
2019-02-02T00:52:27.865Z,34.53
2019-02-02T00:54:02.729Z,32.35
2019-02-02T00:55:37.799Z,34.33
2019-02-02T00:57:12.610Z,35.90
2019-02-02T00:58:47.764Z,35.03
2019-02-02T01:00:23.168Z,33.05
2019-02-02T01:01:58.047Z,33.78
2019-02-02T01:03:33.262Z,32.08
2019-02-02T01:05:11.746Z,32.30
2019-02-02T01:06:46.647Z,34.15
2019-02-02T01:08:21.419Z,35.13
2019-02-02T01:09:56.361Z,34.95
2019-02-02T01:11:31.597Z,33.58
2019-02-02T01:13:07.374Z,31.70
2019-02-02T01:14:42.220Z,37.15
2019-02-02T01:16:17.108Z,34.98
2019-02-02T01:17:52.408Z,35.60
2019-02-02T01:19:27.225Z,35.98
2019-02-02T01:21:02.215Z,35.65
2019-02-02T01:22:37.414Z,34.18
2019-02-02T01:24:12.475Z,35.15
2019-02-02T01:25:47.336Z,34.48
2019-02-02T01:27:22.117Z,35.40
2019-02-02T01:28:57.220Z,34.40
2019-02-02T01:30:32.115Z,36.42
2019-02-02T01:32:07.230Z,35.28
2019-02-02T01:33:42.324Z,34.83
2019-02-02T01:35:17.834Z,34.63
2019-02-02T01:36:52.939Z,37.53
2019-02-02T01:38:27.818Z,37.38
2019-02-02T01:40:02.748Z,35.40
2019-02-02T01:41:37.674Z,40.85
2019-02-02T01:43:12.806Z,40.43
2019-02-02T01:44:47.694Z,37.75
2019-02-02T01:46:22.808Z,37.75
2019-02-02T01:47:58.735Z,37.38
2019-02-02T01:49:33.533Z,38.25
2019-02-02T01:51:09.416Z,37.63
2019-02-02T01:52:44.781Z,37.85
2019-02-02T01:54:19.688Z,41.00
2019-02-02T01:55:54.517Z,39.10
2019-02-02T01:57:29.329Z,37.98
2019-02-02T01:59:04.438Z,39.63
2019-02-02T02:00:40.874Z,42.62
2019-02-02T02:02:15.697Z,40.03
2019-02-02T02:03:50.574Z,39.83
2019-02-02T02:05:25.771Z,40.00
2019-02-02T02:07:01.027Z,39.90
2019-02-02T02:08:36.145Z,39.63
2019-02-02T02:10:13.383Z,37.55
2019-02-02T02:11:48.161Z,36.03
2019-02-02T02:13:23.244Z,36.80
2019-02-02T02:14:58.115Z,37.67
2019-02-02T02:16:33.173Z,36.90
2019-02-02T02:18:08.217Z,37.50
2019-02-02T02:19:43.068Z,35.28
2019-02-02T02:21:17.890Z,36.53
2019-02-02T02:22:52.911Z,38.98
2019-02-02T02:24:27.739Z,35.43
2019-02-02T02:26:02.659Z,38.83
2019-02-02T02:27:37.818Z,39.48
2019-02-02T02:29:12.794Z,37.28
2019-02-02T02:30:48.269Z,35.85
2019-02-02T02:32:23.131Z,35.88
2019-02-02T02:33:58.012Z,34.67
2019-02-02T02:35:33.126Z,34.65
2019-02-02T02:37:08.880Z,35.20
2019-02-02T02:38:43.669Z,34.35
2019-02-02T02:40:21.598Z,34.95
2019-02-02T02:41:56.660Z,35.00
2019-02-02T02:43:31.772Z,36.50
2019-02-02T02:45:07.520Z,33.98
2019-02-02T02:46:42.408Z,34.85
2019-02-02T02:48:17.559Z,37.00
2019-02-02T02:49:52.402Z,35.45
2019-02-02T02:51:27.201Z,34.13
2019-02-02T02:53:02.025Z,33.78
2019-02-02T02:54:36.811Z,33.98
2019-02-02T02:56:11.643Z,33.13
2019-02-02T02:57:46.716Z,32.95
2019-02-02T02:59:21.850Z,34.88
2019-02-02T03:00:56.734Z,31.57
2019-02-02T03:02:31.906Z,33.10
2019-02-02T03:04:06.870Z,37.67
2019-02-02T03:05:41.990Z,36.08
2019-02-02T03:07:19.417Z,36.88
2019-02-02T03:08:53.987Z,35.88
2019-02-02T03:10:29.158Z,34.33
2019-02-02T03:12:04.833Z,35.73
2019-02-02T03:13:39.634Z,35.10
2019-02-02T03:15:15.760Z,34.23
2019-02-02T03:16:50.615Z,37.10
2019-02-02T03:18:25.740Z,38.38
2019-02-02T03:20:05.931Z,35.15
2019-02-02T03:21:43.768Z,34.65
2019-02-02T03:23:17.626Z,35.98
2019-02-02T03:24:52.429Z,38.05
2019-02-02T03:26:27.769Z,39.65
2019-02-02T03:28:02.847Z,41.25
2019-02-02T03:29:37.693Z,40.75
2019-02-02T03:31:12.859Z,40.45
2019-02-02T03:32:48.331Z,42.08
2019-02-02T03:34:23.420Z,42.53
2019-02-02T03:35:58.533Z,42.83
2019-02-02T03:37:33.333Z,40.48
2019-02-02T03:39:12.983Z,38.35
2019-02-02T03:40:47.772Z,39.38
2019-02-02T03:42:22.858Z,39.25
2019-02-02T03:43:57.719Z,38.67
2019-02-02T03:45:32.588Z,40.73
2019-02-02T03:47:07.737Z,39.90
2019-02-02T03:48:42.570Z,38.70
2019-02-02T03:50:17.911Z,39.20
2019-02-02T03:51:53.340Z,40.12
2019-02-02T03:53:28.520Z,39.05
2019-02-02T03:55:03.338Z,40.83
2019-02-02T03:56:38.528Z,39.13
2019-02-02T03:58:13.337Z,40.80
2019-02-02T03:59:48.146Z,40.00
2019-02-02T04:01:23.223Z,40.05
2019-02-02T04:02:58.141Z,40.80
2019-02-02T04:04:33.559Z,40.65
2019-02-02T04:06:08.633Z,43.08
2019-02-02T04:07:43.764Z,41.75
2019-02-02T04:09:18.671Z,42.20
2019-02-02T04:10:53.744Z,43.30
2019-02-02T04:12:28.917Z,43.90
2019-02-02T04:14:03.785Z,42.90
2019-02-02T04:15:38.590Z,40.83
2019-02-02T04:17:13.732Z,42.73
2019-02-02T04:18:49.228Z,44.20
2019-02-02T04:20:24.386Z,44.20
2019-02-02T04:21:59.289Z,42.03
2019-02-02T04:23:34.173Z,44.10
2019-02-02T04:25:09.590Z,44.42
2019-02-02T04:26:44.978Z,42.60
2019-02-02T04:28:19.764Z,43.25
2019-02-02T04:29:55.074Z,44.13
2019-02-02T04:31:30.123Z,42.88
2019-02-02T04:33:05.265Z,43.00
2019-02-02T04:34:40.093Z,40.83
2019-02-02T04:36:15.163Z,41.60
2019-02-02T04:37:49.964Z,40.30
2019-02-02T04:39:24.788Z,40.12
2019-02-02T04:40:59.593Z,39.78
2019-02-02T04:42:34.389Z,39.03
2019-02-02T04:44:09.447Z,41.28
2019-02-02T04:45:44.536Z,40.48
2019-02-02T04:47:19.335Z,40.95
2019-02-02T04:48:54.128Z,41.05
2019-02-02T04:50:29.436Z,40.35
2019-02-02T04:52:04.618Z,40.25
2019-02-02T04:53:40.016Z,36.33
2019-02-02T04:55:17.643Z,38.23
2019-02-02T04:56:52.445Z,39.83
2019-02-02T04:58:27.606Z,39.95
2019-02-02T05:00:02.664Z,41.00
2019-02-02T05:01:37.482Z,40.33
2019-02-02T05:03:12.603Z,40.58
2019-02-02T05:04:47.432Z,39.00
2019-02-02T05:06:22.556Z,38.98
2019-02-02T05:07:57.430Z,40.73
2019-02-02T05:09:32.233Z,39.70
2019-02-02T05:11:07.056Z,38.58
2019-02-02T05:12:41.840Z,38.48
2019-02-02T05:14:16.977Z,39.00
2019-02-02T05:15:52.022Z,36.98
2019-02-02T05:17:26.822Z,37.42
2019-02-02T05:19:01.958Z,38.42
2019-02-02T05:20:36.779Z,38.02
2019-02-02T05:22:12.062Z,41.02
2019-02-02T05:23:46.860Z,40.95
2019-02-02T05:25:21.921Z,39.20
2019-02-02T05:26:56.748Z,39.05
2019-02-02T05:28:31.537Z,36.63
2019-02-02T05:30:11.469Z,36.08
2019-02-02T05:31:50.144Z,36.50
2019-02-02T05:33:24.947Z,36.42
2019-02-02T05:35:00.013Z,36.05
2019-02-02T05:36:34.811Z,37.95
2019-02-02T05:38:09.792Z,38.28
2019-02-02T05:39:44.970Z,37.15
2019-02-02T05:41:19.785Z,37.05
2019-02-02T05:42:54.719Z,36.55
2019-02-02T05:44:29.895Z,37.80
2019-02-02T05:46:04.764Z,38.95
2019-02-02T05:47:39.834Z,38.67
2019-02-02T05:49:14.647Z,36.55
2019-02-02T05:50:49.600Z,37.55
2019-02-02T05:52:24.652Z,36.93
2019-02-02T05:53:59.479Z,35.48
2019-02-02T05:55:34.283Z,38.90
2019-02-02T05:57:09.093Z,36.17
2019-02-02T05:58:44.146Z,37.10
2019-02-02T06:00:28.664Z,37.80
2019-02-02T06:02:03.548Z,36.95
2019-02-02T06:03:38.961Z,38.02
2019-02-02T06:05:13.986Z,36.40
2019-02-02T06:06:48.800Z,37.23
2019-02-02T06:08:23.936Z,37.85
2019-02-02T06:09:59.066Z,37.55
2019-02-02T06:11:34.180Z,39.60
2019-02-02T06:13:11.660Z,37.38
2019-02-02T06:14:45.903Z,37.33
2019-02-02T06:16:20.872Z,38.83
2019-02-02T06:17:55.742Z,39.05
2019-02-02T06:19:30.848Z,40.67
2019-02-02T06:21:06.349Z,40.08
2019-02-02T06:22:41.231Z,39.75
2019-02-02T06:24:16.072Z,40.12
2019-02-02T06:25:50.896Z,39.70
2019-02-02T06:27:25.955Z,39.38
2019-02-02T06:29:00.745Z,38.70
2019-02-02T06:30:35.613Z,38.42
2019-02-02T06:32:11.849Z,38.25
2019-02-02T06:33:47.308Z,39.42
2019-02-02T06:35:22.180Z,39.10
2019-02-02T06:36:57.507Z,41.48
2019-02-02T06:38:32.384Z,42.03
2019-02-02T06:40:08.362Z,40.20
2019-02-02T06:41:43.147Z,42.25
2019-02-02T06:43:18.220Z,41.65
2019-02-02T06:44:53.106Z,40.67
2019-02-02T06:46:27.928Z,42.45
2019-02-02T06:48:04.978Z,41.10
2019-02-02T06:49:39.772Z,40.52
2019-02-02T06:51:17.714Z,38.85
2019-02-02T06:52:52.844Z,38.67
2019-02-02T06:54:31.668Z,39.05
2019-02-02T06:56:05.161Z,38.48
2019-02-02T06:57:40.364Z,38.73
2019-02-02T06:59:15.491Z,39.80
2019-02-02T07:00:56.337Z,40.67
2019-02-02T07:02:31.162Z,37.85
2019-02-02T07:04:07.635Z,39.50
2019-02-02T07:05:42.436Z,39.73
2019-02-02T07:07:17.239Z,38.90
2019-02-02T07:08:52.127Z,38.20
2019-02-02T07:10:28.787Z,39.75
2019-02-02T07:12:03.933Z,40.43
2019-02-02T07:13:38.786Z,39.67
2019-02-02T07:15:15.018Z,40.48
2019-02-02T07:16:49.839Z,40.80
2019-02-02T07:18:24.803Z,38.75
2019-02-02T07:19:59.597Z,41.45
2019-02-02T07:21:34.387Z,39.25
2019-02-02T07:23:11.235Z,40.40
2019-02-02T07:24:45.753Z,40.75
2019-02-02T07:26:21.046Z,41.18
2019-02-02T07:27:56.121Z,41.13
2019-02-02T07:29:31.288Z,41.68
2019-02-02T07:31:06.526Z,40.12
2019-02-02T07:32:41.624Z,40.75
2019-02-02T07:34:16.438Z,40.23
2019-02-02T07:35:54.022Z,39.58
2019-02-02T07:37:28.343Z,40.50
2019-02-02T07:39:04.791Z,41.53
2019-02-02T07:40:39.867Z,40.23
2019-02-02T07:42:15.783Z,41.23
2019-02-02T07:43:50.578Z,39.48
2019-02-02T07:45:30.718Z,40.05
2019-02-02T07:47:05.654Z,39.08
2019-02-02T07:48:40.529Z,41.35
2019-02-02T07:50:16.741Z,41.15
2019-02-02T07:51:51.606Z,38.90
2019-02-02T07:53:27.014Z,40.78
2019-02-02T07:55:02.771Z,42.10
2019-02-02T07:56:39.892Z,39.45
2019-02-02T07:58:14.773Z,38.75
2019-02-02T07:59:52.344Z,39.08
2019-02-02T08:01:29.757Z,38.33
2019-02-02T08:03:11.647Z,40.70
2019-02-02T08:04:51.136Z,38.15
2019-02-02T08:06:27.838Z,37.38
2019-02-02T08:08:05.887Z,39.42
2019-02-02T08:09:47.400Z,37.15
2019-02-02T08:11:27.332Z,36.98
2019-02-02T08:13:12.171Z,40.48
2019-02-02T08:14:50.179Z,38.58
2019-02-02T08:16:34.532Z,37.53
2019-02-02T08:18:15.677Z,38.33
2019-02-02T08:19:58.133Z,38.45
2019-02-02T08:21:41.547Z,38.13
2019-02-02T08:23:25.782Z,39.10
2019-02-02T08:25:08.212Z,38.38
2019-02-02T08:26:51.941Z,38.92
2019-02-02T08:28:36.714Z,38.40
2019-02-02T08:30:29.946Z,38.95
2019-02-02T08:32:16.064Z,37.08
2019-02-02T08:34:01.515Z,37.33
2019-02-02T08:35:46.985Z,38.30
2019-02-02T08:37:30.426Z,40.58
2019-02-02T08:39:28.719Z,40.35
2019-02-02T08:41:02.967Z,39.75
2019-02-02T08:42:47.170Z,39.38
2019-02-02T08:44:30.353Z,39.80
2019-02-02T08:46:15.448Z,39.08
2019-02-02T08:48:03.238Z,39.88
2019-02-02T08:49:49.768Z,40.28
2019-02-02T08:51:33.914Z,37.90
2019-02-02T08:53:16.621Z,39.25
2019-02-02T08:55:01.082Z,39.98
2019-02-02T08:56:48.075Z,37.95
2019-02-02T08:58:37.051Z,40.08
2019-02-02T09:00:26.019Z,38.35
2019-02-02T09:02:11.828Z,39.08
2019-02-02T09:03:58.386Z,39.35
2019-02-02T09:05:46.663Z,37.83
2019-02-02T09:07:37.979Z,37.80
2019-02-02T09:09:22.293Z,39.40
2019-02-02T09:11:09.897Z,36.63
2019-02-02T09:12:57.105Z,37.17
2019-02-02T09:14:45.356Z,38.50
2019-02-02T09:16:33.112Z,38.28
2019-02-02T09:18:19.929Z,38.38
2019-02-02T09:20:07.455Z,37.25
2019-02-02T09:21:56.281Z,38.75
2019-02-02T09:23:44.213Z,38.92
2019-02-02T09:25:31.241Z,37.58
2019-02-02T09:27:17.896Z,39.10
2019-02-02T09:29:04.291Z,37.90
2019-02-02T09:30:49.494Z,37.33
2019-02-02T09:32:36.299Z,38.15
2019-02-02T09:34:22.590Z,39.03
2019-02-02T09:36:16.774Z,36.88
2019-02-02T09:38:01.907Z,36.05
2019-02-02T09:39:49.396Z,39.00
2019-02-02T09:41:35.959Z,38.88
2019-02-02T09:43:22.163Z,38.23
2019-02-02T09:45:10.739Z,38.28
2019-02-02T09:46:55.833Z,39.88
2019-02-02T09:48:44.269Z,39.03
2019-02-02T09:50:31.778Z,38.83
2019-02-02T09:52:17.894Z,37.70
2019-02-02T09:54:03.909Z,37.45
2019-02-02T09:55:48.227Z,37.63
2019-02-02T09:57:36.926Z,36.08
2019-02-02T09:59:22.138Z,35.88
2019-02-02T10:01:06.945Z,38.17
2019-02-02T10:02:50.966Z,36.10
2019-02-02T10:04:34.379Z,39.10
2019-02-02T10:06:18.622Z,37.00
2019-02-02T10:08:02.210Z,39.45
2019-02-02T10:09:46.433Z,36.13
2019-02-02T10:11:34.085Z,37.35
2019-02-02T10:13:21.676Z,37.42
2019-02-02T10:15:06.140Z,37.88
2019-02-02T10:16:49.672Z,39.73
2019-02-02T10:18:36.486Z,40.25
2019-02-02T10:20:27.982Z,40.17
2019-02-02T10:22:14.670Z,40.43
2019-02-02T10:24:01.843Z,40.10
2019-02-02T10:25:50.318Z,40.58
2019-02-02T10:27:38.168Z,41.30
2019-02-02T10:29:25.784Z,40.95
2019-02-02T10:31:13.493Z,44.90
2019-02-02T10:33:01.723Z,41.68
2019-02-02T10:34:48.703Z,42.20
2019-02-02T10:36:36.121Z,42.17
2019-02-02T10:38:21.827Z,43.63
2019-02-02T10:40:08.581Z,44.38
2019-02-02T10:41:56.242Z,44.18
2019-02-02T10:43:44.044Z,42.58
2019-02-02T10:45:31.082Z,41.85
2019-02-02T10:47:17.794Z,42.90
2019-02-02T10:49:04.671Z,40.20
2019-02-02T10:50:51.841Z,41.92
2019-02-02T10:52:39.230Z,39.98
2019-02-02T10:54:25.636Z,40.58
2019-02-02T10:56:12.619Z,41.90
2019-02-02T10:58:02.539Z,41.55
2019-02-02T10:59:50.681Z,40.38
2019-02-02T11:01:37.051Z,39.00
2019-02-02T11:03:29.291Z,40.52
2019-02-02T11:05:19.580Z,41.02
2019-02-02T11:07:06.292Z,40.78
2019-02-02T11:08:52.601Z,42.43
2019-02-02T11:10:40.437Z,40.30
2019-02-02T11:12:30.278Z,40.63
2019-02-02T11:14:20.174Z,39.63
2019-02-02T11:16:08.590Z,41.75
2019-02-02T11:18:01.166Z,39.05
2019-02-02T11:19:49.880Z,40.05
2019-02-02T11:21:38.239Z,41.30
2019-02-02T11:23:25.019Z,41.83
2019-02-02T11:25:14.034Z,41.88
2019-02-02T11:27:01.907Z,41.10
2019-02-02T11:28:52.485Z,40.45
2019-02-02T11:30:42.145Z,41.37
2019-02-02T11:32:33.936Z,42.62
2019-02-02T11:34:24.283Z,40.95
2019-02-02T11:36:13.295Z,42.55
2019-02-02T11:38:05.161Z,40.50
2019-02-02T11:39:55.613Z,42.25
2019-02-02T11:41:44.587Z,39.42
2019-02-02T11:43:35.070Z,41.98
2019-02-02T11:45:23.150Z,40.73
2019-02-02T11:47:11.253Z,42.08
2019-02-02T11:49:03.883Z,42.33
2019-02-02T11:50:52.921Z,41.83
2019-02-02T11:52:42.931Z,41.50
2019-02-02T11:54:31.036Z,40.20
2019-02-02T11:56:19.912Z,45.00
2019-02-02T11:58:06.767Z,42.95
2019-02-02T11:59:55.995Z,40.52
2019-02-02T12:01:45.022Z,41.13
2019-02-02T12:03:34.631Z,41.75
2019-02-02T12:05:24.386Z,41.42
2019-02-02T12:07:12.690Z,41.08
2019-02-02T12:09:02.133Z,39.85
2019-02-02T12:10:51.551Z,39.67
2019-02-02T12:12:42.180Z,41.18
2019-02-02T12:14:30.991Z,41.63
2019-02-02T12:16:20.938Z,41.20
2019-02-02T12:18:07.736Z,39.78
2019-02-02T12:19:53.329Z,39.65
2019-02-02T12:21:40.740Z,41.60
2019-02-02T12:23:26.232Z,40.35
2019-02-02T12:25:14.822Z,42.13
2019-02-02T12:26:59.748Z,40.70
2019-02-02T12:28:47.895Z,39.63
2019-02-02T12:30:37.500Z,39.40
2019-02-02T12:32:27.066Z,39.98
2019-02-02T12:34:14.234Z,38.13
2019-02-02T12:36:01.449Z,38.35
2019-02-02T12:37:46.455Z,38.10
2019-02-02T12:39:34.086Z,39.15
2019-02-02T12:41:19.186Z,41.45
2019-02-02T12:43:08.351Z,42.48
2019-02-02T12:44:56.029Z,41.90
2019-02-02T12:46:46.066Z,40.43
2019-02-02T12:48:35.549Z,39.75
2019-02-02T12:50:23.400Z,38.48
2019-02-02T12:52:11.962Z,37.58
2019-02-02T12:54:00.907Z,36.42
2019-02-02T12:55:50.166Z,39.85
2019-02-02T12:57:40.513Z,39.78
2019-02-02T12:59:32.361Z,40.85
2019-02-02T13:01:22.906Z,42.00
2019-02-02T13:03:12.767Z,40.90
2019-02-02T13:05:03.260Z,39.23
2019-02-02T13:06:52.538Z,37.58
2019-02-02T13:08:41.445Z,39.50
2019-02-02T13:10:31.921Z,38.83
2019-02-02T13:12:21.626Z,43.23
2019-02-02T13:14:10.693Z,40.48
2019-02-02T13:16:02.325Z,39.55
2019-02-02T13:17:51.752Z,40.25
2019-02-02T13:19:43.724Z,39.70
2019-02-02T13:21:34.848Z,41.85
2019-02-02T13:23:23.478Z,40.63
2019-02-02T13:25:12.714Z,41.58
2019-02-02T13:27:00.762Z,40.55
2019-02-02T13:28:49.378Z,40.73
2019-02-02T13:30:43.210Z,44.63
2019-02-02T13:32:30.871Z,47.38
2019-02-02T13:34:26.109Z,47.80
2019-02-02T13:36:17.972Z,44.45
2019-02-02T13:38:07.981Z,42.85
2019-02-02T13:39:58.102Z,45.08
2019-02-02T13:41:48.102Z,47.53
2019-02-02T13:43:38.407Z,47.70
2019-02-02T13:45:29.197Z,46.10
2019-02-02T13:47:19.922Z,45.70
2019-02-02T13:49:08.961Z,45.83
2019-02-02T13:50:56.983Z,45.28
2019-02-02T13:52:46.927Z,44.67
2019-02-02T13:54:37.079Z,46.13
2019-02-02T13:56:25.441Z,43.40
2019-02-02T13:58:24.555Z,45.40
2019-02-02T14:00:17.913Z,43.08
2019-02-02T14:02:07.507Z,43.15
2019-02-02T14:03:57.512Z,42.17
2019-02-02T14:05:46.673Z,42.98
2019-02-02T14:07:38.255Z,43.58
2019-02-02T14:09:26.635Z,45.45
2019-02-02T14:11:14.495Z,47.50
2019-02-02T14:13:04.501Z,48.52
2019-02-02T14:14:54.911Z,49.65
2019-02-02T14:16:45.697Z,45.38
2019-02-02T14:18:33.619Z,44.88
2019-02-02T14:20:23.433Z,44.83
2019-02-02T14:22:13.166Z,45.92
2019-02-02T14:24:01.992Z,44.73
2019-02-02T14:25:51.033Z,45.88
2019-02-02T14:27:38.999Z,45.78
2019-02-02T14:29:26.418Z,40.48
2019-02-02T14:31:15.283Z,41.90
2019-02-02T14:33:13.609Z,44.75
2019-02-02T14:34:56.588Z,45.65
2019-02-02T14:36:45.158Z,44.60
2019-02-02T14:38:32.666Z,47.55
2019-02-02T14:40:21.253Z,48.52
2019-02-02T14:42:11.147Z,49.75
2019-02-02T14:43:55.992Z,49.10
2019-02-02T14:45:40.355Z,51.60
2019-02-02T14:47:29.113Z,53.92
2019-02-02T14:49:16.746Z,55.30
2019-02-02T14:51:02.358Z,54.38
2019-02-02T14:52:48.699Z,55.52
2019-02-02T14:54:35.043Z,57.48
2019-02-02T14:56:23.191Z,54.90
2019-02-02T14:58:08.623Z,55.48
2019-02-02T14:59:53.278Z,57.40
2019-02-02T15:01:38.262Z,58.55
2019-02-02T15:03:25.712Z,57.25
2019-02-02T15:05:10.854Z,57.78
2019-02-02T15:06:55.324Z,59.88
2019-02-02T15:08:39.946Z,60.20
2019-02-02T15:10:26.214Z,59.25
2019-02-02T15:12:11.904Z,59.73
2019-02-02T15:13:59.872Z,60.05
2019-02-02T15:15:45.978Z,57.45
2019-02-02T15:17:32.911Z,57.45
2019-02-02T15:19:18.459Z,54.08
2019-02-02T15:21:09.369Z,55.20
2019-02-02T15:22:54.060Z,59.08
2019-02-02T15:24:38.651Z,57.78
2019-02-02T15:26:23.123Z,54.80
2019-02-02T15:28:07.784Z,53.87
2019-02-02T15:29:54.763Z,53.05
2019-02-02T15:31:39.830Z,54.60
2019-02-02T15:33:37.262Z,55.10
2019-02-02T15:35:14.335Z,55.65
2019-02-02T15:36:59.321Z,58.98
2019-02-02T15:38:44.876Z,56.98
2019-02-02T15:40:31.729Z,52.35
2019-02-02T15:42:16.058Z,53.02
2019-02-02T15:44:01.181Z,49.00
2019-02-02T15:45:49.826Z,49.63
2019-02-02T15:47:34.479Z,48.20
2019-02-02T15:49:21.331Z,47.13
2019-02-02T15:51:06.635Z,49.05
2019-02-02T15:52:53.910Z,46.42
2019-02-02T15:54:39.106Z,46.15
2019-02-02T15:56:25.206Z,50.10
2019-02-02T15:58:11.140Z,46.58
2019-02-02T15:59:56.671Z,45.60
2019-02-02T16:01:43.778Z,43.02
2019-02-02T16:03:28.518Z,46.53
2019-02-02T16:05:17.542Z,42.95
2019-02-02T16:07:02.787Z,44.35
2019-02-02T16:08:48.950Z,43.85
2019-02-02T16:10:35.418Z,48.15
2019-02-02T16:12:20.515Z,45.80
2019-02-02T16:14:06.071Z,44.77
2019-02-02T16:15:52.627Z,45.90
2019-02-02T16:17:37.122Z,42.98
2019-02-02T16:19:21.542Z,42.88
2019-02-02T16:21:06.645Z,48.05
2019-02-02T16:22:51.556Z,42.38
2019-02-02T16:24:36.503Z,45.85
2019-02-02T16:26:23.956Z,42.93
2019-02-02T16:28:11.824Z,42.67
2019-02-02T16:30:01.812Z,40.95
2019-02-02T16:31:53.175Z,39.27
2019-02-02T16:33:45.263Z,40.20
2019-02-02T16:35:33.294Z,38.20
2019-02-02T16:37:24.613Z,40.67
2019-02-02T16:39:15.783Z,44.13
2019-02-02T16:41:05.075Z,45.35
2019-02-02T16:42:58.212Z,47.80
2019-02-02T16:44:49.034Z,47.20
2019-02-02T16:46:39.598Z,46.68
2019-02-02T16:48:31.736Z,44.35
2019-02-02T16:50:22.940Z,47.43
2019-02-02T16:52:11.768Z,52.30
2019-02-02T16:54:00.590Z,50.58
2019-02-02T16:55:52.306Z,47.65
2019-02-02T16:57:45.797Z,50.52
2019-02-02T16:59:31.219Z,52.83
2019-02-02T17:01:22.403Z,55.20
2019-02-02T17:03:07.951Z,54.95
2019-02-02T17:04:53.180Z,59.08
2019-02-02T17:06:40.000Z,59.55
2019-02-02T17:08:28.255Z,60.70
2019-02-02T17:10:16.870Z,57.60
2019-02-02T17:12:04.889Z,57.80
2019-02-02T17:13:52.393Z,50.98
2019-02-02T17:15:36.127Z,52.98
2019-02-02T17:17:25.594Z,49.25
2019-02-02T17:19:11.209Z,49.48
2019-02-02T17:21:00.706Z,50.00
2019-02-02T17:22:47.991Z,49.70
2019-02-02T17:24:35.482Z,47.55
2019-02-02T17:26:22.092Z,48.17
2019-02-02T17:28:09.317Z,46.77
2019-02-02T17:29:55.280Z,47.95
2019-02-02T17:31:41.018Z,46.48
2019-02-02T17:33:26.698Z,48.28
2019-02-02T17:35:14.546Z,44.90
2019-02-02T17:36:59.796Z,47.38
2019-02-02T17:38:44.819Z,43.38
2019-02-02T17:40:32.235Z,45.15
2019-02-02T17:42:18.877Z,45.40
2019-02-02T17:44:04.995Z,45.30
2019-02-02T17:45:50.283Z,47.53
2019-02-02T17:47:37.164Z,47.15
2019-02-02T17:49:22.478Z,48.33
2019-02-02T17:51:08.779Z,44.60
2019-02-02T17:52:54.343Z,44.53
2019-02-02T17:54:39.091Z,42.45
2019-02-02T17:56:26.292Z,41.65
2019-02-02T17:58:13.313Z,42.33
2019-02-02T17:59:59.028Z,42.38
2019-02-02T18:01:46.857Z,42.00
2019-02-02T18:03:35.845Z,41.48
2019-02-02T18:05:24.553Z,43.78
2019-02-02T18:07:09.532Z,52.67
2019-02-02T18:08:56.656Z,55.50
2019-02-02T18:10:44.719Z,56.85
2019-02-02T18:12:35.069Z,58.55
2019-02-02T18:14:22.389Z,59.05
2019-02-02T18:16:08.103Z,59.30
2019-02-02T18:17:53.214Z,59.93
2019-02-02T18:19:39.776Z,54.35
2019-02-02T18:21:24.927Z,53.28
2019-02-02T18:23:12.859Z,49.83
2019-02-02T18:24:59.153Z,53.05
2019-02-02T18:26:47.592Z,51.90
2019-02-02T18:28:33.568Z,49.75
2019-02-02T18:30:22.595Z,46.92
2019-02-02T18:32:13.192Z,46.30
2019-02-02T18:33:58.428Z,45.98
2019-02-02T18:35:47.627Z,45.95
2019-02-02T18:37:36.589Z,43.48
2019-02-02T18:39:24.303Z,42.67
2019-02-02T18:41:10.860Z,42.93
2019-02-02T18:42:56.687Z,44.08
2019-02-02T18:44:45.160Z,44.85
2019-02-02T18:46:38.333Z,44.25
2019-02-02T18:48:24.247Z,42.30
2019-02-02T18:50:16.956Z,41.68
2019-02-02T18:52:07.768Z,42.88
2019-02-02T18:53:57.090Z,40.88
2019-02-02T18:55:47.449Z,45.08
2019-02-02T18:57:36.526Z,43.78
2019-02-02T18:59:23.227Z,41.18
2019-02-02T19:01:10.979Z,42.15
2019-02-02T19:02:59.734Z,41.80
2019-02-02T19:04:48.899Z,42.53
2019-02-02T19:06:36.317Z,40.50
2019-02-02T19:08:22.026Z,44.13
2019-02-02T19:10:11.854Z,43.08
2019-02-02T19:12:04.378Z,42.62
2019-02-02T19:13:53.426Z,42.25
2019-02-02T19:15:41.909Z,46.88
2019-02-02T19:17:28.851Z,46.33
2019-02-02T19:19:17.754Z,44.18
2019-02-02T19:21:08.169Z,43.80
2019-02-02T19:22:56.984Z,45.40
2019-02-02T19:24:47.525Z,47.43
2019-02-02T19:26:37.717Z,45.95
2019-02-02T19:28:39.346Z,46.48
2019-02-02T19:30:23.667Z,45.12
2019-02-02T19:32:12.295Z,46.18
2019-02-02T19:34:00.951Z,48.20
2019-02-02T19:35:47.321Z,43.45
2019-02-02T19:37:35.703Z,44.23
2019-02-02T19:39:26.835Z,44.93
2019-02-02T19:41:15.322Z,43.10
2019-02-02T19:43:07.742Z,45.05
2019-02-02T19:44:54.497Z,43.85
2019-02-02T19:46:42.347Z,45.88
2019-02-02T19:48:30.490Z,46.37
2019-02-02T19:50:22.257Z,46.68
2019-02-02T19:52:13.553Z,46.50
2019-02-02T19:54:01.491Z,44.93
2019-02-02T19:55:48.908Z,44.65
2019-02-02T19:57:39.045Z,42.58
2019-02-02T19:59:26.031Z,42.60
2019-02-02T20:01:16.877Z,43.83
2019-02-02T20:03:09.740Z,42.70
2019-02-02T20:05:04.544Z,42.85
2019-02-02T20:06:53.125Z,42.88
2019-02-02T20:08:44.453Z,43.05
2019-02-02T20:10:31.072Z,42.62
2019-02-02T20:12:19.467Z,44.85
2019-02-02T20:14:07.576Z,45.78
2019-02-02T20:15:54.538Z,44.50
2019-02-02T20:17:41.671Z,43.10
2019-02-02T20:19:32.890Z,42.20
2019-02-02T20:21:21.141Z,45.63
2019-02-02T20:23:08.480Z,45.85
2019-02-02T20:24:54.956Z,45.95
2019-02-02T20:26:41.773Z,44.25
2019-02-02T20:28:32.163Z,44.55
2019-02-02T20:30:20.926Z,44.00
2019-02-02T20:32:10.143Z,46.30
2019-02-02T20:33:57.366Z,45.58
2019-02-02T20:35:44.476Z,46.75
2019-02-02T20:37:38.753Z,47.10
2019-02-02T20:39:31.688Z,46.05
2019-02-02T20:41:18.054Z,47.75
2019-02-02T20:43:05.473Z,47.05
2019-02-02T20:44:54.107Z,46.00
2019-02-02T20:46:41.710Z,43.52
2019-02-02T20:48:29.349Z,44.18
2019-02-02T20:50:19.258Z,45.83
2019-02-02T20:52:08.277Z,45.23
2019-02-02T20:53:56.575Z,44.90
2019-02-02T20:55:46.843Z,44.00
2019-02-02T20:57:34.720Z,45.45
2019-02-02T20:59:25.793Z,46.08
2019-02-02T21:01:11.989Z,46.37
2019-02-02T21:02:58.546Z,45.12
2019-02-02T21:04:44.720Z,44.77
2019-02-02T21:06:31.603Z,45.98
2019-02-02T21:08:21.762Z,49.20
2019-02-02T21:10:09.555Z,50.78
2019-02-02T21:12:00.178Z,50.08
2019-02-02T21:13:50.158Z,47.62
2019-02-02T21:15:37.335Z,47.53
2019-02-02T21:17:25.877Z,48.63
2019-02-02T21:19:13.734Z,50.52
2019-02-02T21:20:59.745Z,53.78
2019-02-02T21:22:46.010Z,49.77
2019-02-02T21:24:35.263Z,50.38
2019-02-02T21:26:21.253Z,52.13
2019-02-02T21:28:07.622Z,50.75
2019-02-02T21:29:53.580Z,50.92
2019-02-02T21:31:41.084Z,50.95
2019-02-02T21:33:29.881Z,49.85
2019-02-02T21:35:16.131Z,48.50
2019-02-02T21:37:02.093Z,51.10
2019-02-02T21:38:48.174Z,51.98
2019-02-02T21:40:36.972Z,51.83
2019-02-02T21:42:25.305Z,50.00
2019-02-02T21:44:15.274Z,48.35
2019-02-02T21:46:01.857Z,48.30
2019-02-02T21:47:49.426Z,50.15
2019-02-02T21:49:36.193Z,53.23
2019-02-02T21:51:25.253Z,49.73
2019-02-02T21:53:10.690Z,51.28
2019-02-02T21:54:56.320Z,52.03
2019-02-02T21:56:42.485Z,50.60
2019-02-02T21:58:29.510Z,49.85
2019-02-02T22:00:21.397Z,51.63
2019-02-02T22:02:07.375Z,49.93
2019-02-02T22:03:52.512Z,47.90
2019-02-02T22:05:39.287Z,47.73